sensor_id;sensor_type;location;lat;lon;timestamp;P1;durP1;ratioP1;P2;durP2;ratioP2
16466;SDS011;8344;47.560;9.710;2023-02-12T00:01:10;0.83;;;0.83;;
16466;SDS011;8344;47.560;9.710;2023-02-12T00:03:36;0.80;;;0.80;;
16466;SDS011;8344;47.560;9.710;2023-02-12T00:06:02;0.80;;;0.80;;
16466;SDS011;8344;47.560;9.710;2023-02-12T00:08:28;0.70;;;0.70;;
16466;SDS011;8344;47.560;9.710;2023-02-12T00:10:53;0.87;;;0.87;;
16466;SDS011;8344;47.560;9.710;2023-02-12T00:13:18;0.70;;;0.70;;
16466;SDS011;8344;47.560;9.710;2023-02-12T00:15:44;0.80;;;0.80;;
16466;SDS011;8344;47.560;9.710;2023-02-12T00:18:09;0.70;;;0.70;;
16466;SDS011;8344;47.560;9.710;2023-02-12T00:20:35;0.70;;;0.70;;
16466;SDS011;8344;47.560;9.710;2023-02-12T00:23:01;0.70;;;0.70;;
16466;SDS011;8344;47.560;9.710;2023-02-12T00:25:26;0.70;;;0.70;;
16466;SDS011;8344;47.560;9.710;2023-02-12T00:27:51;0.73;;;0.73;;
16466;SDS011;8344;47.560;9.710;2023-02-12T00:30:17;1.00;;;1.00;;
16466;SDS011;8344;47.560;9.710;2023-02-12T00:32:43;0.67;;;0.67;;
16466;SDS011;8344;47.560;9.710;2023-02-12T00:35:09;0.80;;;0.80;;
16466;SDS011;8344;47.560;9.710;2023-02-12T00:37:34;0.90;;;0.90;;
16466;SDS011;8344;47.560;9.710;2023-02-12T00:40:00;0.97;;;0.97;;
16466;SDS011;8344;47.560;9.710;2023-02-12T00:42:25;0.60;;;0.60;;
16466;SDS011;8344;47.560;9.710;2023-02-12T00:44:50;0.80;;;0.80;;
16466;SDS011;8344;47.560;9.710;2023-02-12T00:47:16;0.80;;;0.80;;
16466;SDS011;8344;47.560;9.710;2023-02-12T00:49:41;0.70;;;0.70;;
16466;SDS011;8344;47.560;9.710;2023-02-12T00:52:06;0.70;;;0.70;;
16466;SDS011;8344;47.560;9.710;2023-02-12T00:54:31;0.70;;;0.70;;
16466;SDS011;8344;47.560;9.710;2023-02-12T00:56:57;0.63;;;0.63;;
16466;SDS011;8344;47.560;9.710;2023-02-12T00:59:23;0.80;;;0.80;;
16466;SDS011;8344;47.560;9.710;2023-02-12T01:01:49;0.80;;;0.80;;
16466;SDS011;8344;47.560;9.710;2023-02-12T01:04:15;0.80;;;0.80;;
16466;SDS011;8344;47.560;9.710;2023-02-12T01:06:41;0.70;;;0.70;;
16466;SDS011;8344;47.560;9.710;2023-02-12T01:09:06;0.70;;;0.70;;
16466;SDS011;8344;47.560;9.710;2023-02-12T01:11:32;0.60;;;0.60;;
16466;SDS011;8344;47.560;9.710;2023-02-12T01:13:57;0.60;;;0.60;;
16466;SDS011;8344;47.560;9.710;2023-02-12T01:16:23;0.57;;;0.57;;
16466;SDS011;8344;47.560;9.710;2023-02-12T01:18:49;0.70;;;0.70;;
16466;SDS011;8344;47.560;9.710;2023-02-12T01:21:19;0.90;;;0.90;;
16466;SDS011;8344;47.560;9.710;2023-02-12T01:23:46;0.90;;;0.90;;
16466;SDS011;8344;47.560;9.710;2023-02-12T01:26:12;0.80;;;0.80;;
16466;SDS011;8344;47.560;9.710;2023-02-12T01:28:38;0.70;;;0.70;;
16466;SDS011;8344;47.560;9.710;2023-02-12T01:31:12;0.90;;;0.90;;
16466;SDS011;8344;47.560;9.710;2023-02-12T01:33:39;0.80;;;0.80;;
16466;SDS011;8344;47.560;9.710;2023-02-12T01:36:04;0.60;;;0.60;;
16466;SDS011;8344;47.560;9.710;2023-02-12T01:38:30;0.77;;;0.77;;
16466;SDS011;8344;47.560;9.710;2023-02-12T01:41:03;0.80;;;0.80;;
16466;SDS011;8344;47.560;9.710;2023-02-12T01:43:30;0.70;;;0.70;;
16466;SDS011;8344;47.560;9.710;2023-02-12T01:45:58;0.80;;;0.80;;
16466;SDS011;8344;47.560;9.710;2023-02-12T01:48:24;0.80;;;0.80;;
16466;SDS011;8344;47.560;9.710;2023-02-12T01:50:52;0.70;;;0.70;;
16466;SDS011;8344;47.560;9.710;2023-02-12T01:53:18;0.90;;;0.90;;
16466;SDS011;8344;47.560;9.710;2023-02-12T01:55:46;0.67;;;0.67;;
16466;SDS011;8344;47.560;9.710;2023-02-12T01:58:12;0.80;;;0.80;;
16466;SDS011;8344;47.560;9.710;2023-02-12T02:00:38;0.70;;;0.70;;
16466;SDS011;8344;47.560;9.710;2023-02-12T02:03:03;0.90;;;0.90;;
16466;SDS011;8344;47.560;9.710;2023-02-12T02:05:34;0.80;;;0.80;;
16466;SDS011;8344;47.560;9.710;2023-02-12T02:08:05;0.70;;;0.70;;
16466;SDS011;8344;47.560;9.710;2023-02-12T02:10:30;0.80;;;0.80;;
16466;SDS011;8344;47.560;9.710;2023-02-12T02:12:56;0.83;;;0.83;;
16466;SDS011;8344;47.560;9.710;2023-02-12T02:15:40;0.80;;;0.80;;
16466;SDS011;8344;47.560;9.710;2023-02-12T02:20:58;0.83;;;0.83;;
16466;SDS011;8344;47.560;9.710;2023-02-12T02:32:21;0.80;;;0.80;;
16466;SDS011;8344;47.560;9.710;2023-02-12T02:35:08;0.90;;;0.90;;
16466;SDS011;8344;47.560;9.710;2023-02-12T02:37:38;1.03;;;1.03;;
16466;SDS011;8344;47.560;9.710;2023-02-12T02:40:10;0.80;;;0.80;;
16466;SDS011;8344;47.560;9.710;2023-02-12T02:42:58;0.87;;;0.87;;
16466;SDS011;8344;47.560;9.710;2023-02-12T02:45:25;1.00;;;1.00;;
16466;SDS011;8344;47.560;9.710;2023-02-12T02:47:59;0.70;;;0.70;;
16466;SDS011;8344;47.560;9.710;2023-02-12T02:50:26;0.80;;;0.80;;
16466;SDS011;8344;47.560;9.710;2023-02-12T02:52:55;0.77;;;0.77;;
16466;SDS011;8344;47.560;9.710;2023-02-12T02:55:26;0.70;;;0.70;;
16466;SDS011;8344;47.560;9.710;2023-02-12T03:00:48;0.63;;;0.63;;
16466;SDS011;8344;47.560;9.710;2023-02-12T03:03:26;0.70;;;0.70;;
16466;SDS011;8344;47.560;9.710;2023-02-12T03:05:56;0.73;;;0.73;;
16466;SDS011;8344;47.560;9.710;2023-02-12T03:08:29;0.80;;;0.80;;
16466;SDS011;8344;47.560;9.710;2023-02-12T03:11:04;0.80;;;0.80;;
16466;SDS011;8344;47.560;9.710;2023-02-12T03:13:36;0.70;;;0.70;;
16466;SDS011;8344;47.560;9.710;2023-02-12T03:16:10;0.77;;;0.77;;
16466;SDS011;8344;47.560;9.710;2023-02-12T03:18:44;0.70;;;0.70;;
16466;SDS011;8344;47.560;9.710;2023-02-12T03:21:17;1.00;;;1.00;;
16466;SDS011;8344;47.560;9.710;2023-02-12T03:26:37;1.00;;;1.00;;
16466;SDS011;8344;47.560;9.710;2023-02-12T03:29:06;0.90;;;0.90;;
16466;SDS011;8344;47.560;9.710;2023-02-12T03:34:10;0.80;;;0.80;;
16466;SDS011;8344;47.560;9.710;2023-02-12T03:36:43;0.80;;;0.80;;
16466;SDS011;8344;47.560;9.710;2023-02-12T03:39:13;0.67;;;0.67;;
16466;SDS011;8344;47.560;9.710;2023-02-12T03:41:46;0.70;;;0.70;;
16466;SDS011;8344;47.560;9.710;2023-02-12T03:46:57;0.63;;;0.63;;
16466;SDS011;8344;47.560;9.710;2023-02-12T03:49:37;0.80;;;0.80;;
16466;SDS011;8344;47.560;9.710;2023-02-12T03:52:18;0.80;;;0.80;;
16466;SDS011;8344;47.560;9.710;2023-02-12T03:54:43;0.87;;;0.87;;
16466;SDS011;8344;47.560;9.710;2023-02-12T03:57:09;0.80;;;0.80;;
16466;SDS011;8344;47.560;9.710;2023-02-12T03:59:37;0.80;;;0.80;;
16466;SDS011;8344;47.560;9.710;2023-02-12T04:02:03;0.80;;;0.80;;
16466;SDS011;8344;47.560;9.710;2023-02-12T04:04:29;0.70;;;0.70;;
16466;SDS011;8344;47.560;9.710;2023-02-12T04:06:54;0.90;;;0.90;;
16466;SDS011;8344;47.560;9.710;2023-02-12T04:09:20;0.67;;;0.67;;
16466;SDS011;8344;47.560;9.710;2023-02-12T04:14:51;0.83;;;0.83;;
16466;SDS011;8344;47.560;9.710;2023-02-12T04:17:25;1.10;;;1.10;;
16466;SDS011;8344;47.560;9.710;2023-02-12T04:20:04;0.70;;;0.70;;
16466;SDS011;8344;47.560;9.710;2023-02-12T04:31:03;1.07;;;1.07;;
16466;SDS011;8344;47.560;9.710;2023-02-12T04:33:34;1.00;;;1.00;;
16466;SDS011;8344;47.560;9.710;2023-02-12T04:38:52;0.80;;;0.80;;
16466;SDS011;8344;47.560;9.710;2023-02-12T04:41:21;0.63;;;0.63;;
16466;SDS011;8344;47.560;9.710;2023-02-12T04:43:47;0.70;;;0.70;;
16466;SDS011;8344;47.560;9.710;2023-02-12T04:46:12;1.00;;;1.00;;
16466;SDS011;8344;47.560;9.710;2023-02-12T04:48:48;0.70;;;0.70;;
16466;SDS011;8344;47.560;9.710;2023-02-12T04:51:16;0.90;;;0.90;;
16466;SDS011;8344;47.560;9.710;2023-02-12T04:53:41;0.80;;;0.80;;
16466;SDS011;8344;47.560;9.710;2023-02-12T04:56:08;0.67;;;0.67;;
16466;SDS011;8344;47.560;9.710;2023-02-12T04:58:35;0.80;;;0.80;;
16466;SDS011;8344;47.560;9.710;2023-02-12T05:01:01;0.80;;;0.80;;
16466;SDS011;8344;47.560;9.710;2023-02-12T05:03:27;0.90;;;0.90;;
16466;SDS011;8344;47.560;9.710;2023-02-12T05:05:52;0.70;;;0.70;;
16466;SDS011;8344;47.560;9.710;2023-02-12T05:08:17;0.97;;;0.97;;
16466;SDS011;8344;47.560;9.710;2023-02-12T05:10:42;0.70;;;0.70;;
16466;SDS011;8344;47.560;9.710;2023-02-12T05:13:08;0.67;;;0.67;;
16466;SDS011;8344;47.560;9.710;2023-02-12T05:15:34;1.00;;;1.00;;
16466;SDS011;8344;47.560;9.710;2023-02-12T05:17:59;0.80;;;0.80;;
16466;SDS011;8344;47.560;9.710;2023-02-12T05:20:25;0.70;;;0.70;;
16466;SDS011;8344;47.560;9.710;2023-02-12T05:22:51;1.07;;;1.07;;
16466;SDS011;8344;47.560;9.710;2023-02-12T05:25:17;0.80;;;0.80;;
16466;SDS011;8344;47.560;9.710;2023-02-12T05:27:42;0.80;;;0.80;;
16466;SDS011;8344;47.560;9.710;2023-02-12T05:30:08;1.20;;;1.20;;
16466;SDS011;8344;47.560;9.710;2023-02-12T05:32:33;0.73;;;0.73;;
16466;SDS011;8344;47.560;9.710;2023-02-12T05:34:59;0.87;;;0.87;;
16466;SDS011;8344;47.560;9.710;2023-02-12T05:37:24;1.07;;;1.07;;
16466;SDS011;8344;47.560;9.710;2023-02-12T05:39:49;0.73;;;0.73;;
16466;SDS011;8344;47.560;9.710;2023-02-12T05:42:15;0.80;;;0.80;;
16466;SDS011;8344;47.560;9.710;2023-02-12T05:44:40;0.90;;;0.90;;
16466;SDS011;8344;47.560;9.710;2023-02-12T05:47:05;0.87;;;0.87;;
16466;SDS011;8344;47.560;9.710;2023-02-12T05:49:31;1.20;;;1.20;;
16466;SDS011;8344;47.560;9.710;2023-02-12T05:51:56;1.00;;;1.00;;
16466;SDS011;8344;47.560;9.710;2023-02-12T05:54:21;0.77;;;0.77;;
16466;SDS011;8344;47.560;9.710;2023-02-12T05:56:46;0.83;;;0.83;;
16466;SDS011;8344;47.560;9.710;2023-02-12T05:59:13;0.90;;;0.90;;
16466;SDS011;8344;47.560;9.710;2023-02-12T06:01:41;0.90;;;0.90;;
16466;SDS011;8344;47.560;9.710;2023-02-12T06:04:09;0.90;;;0.90;;
16466;SDS011;8344;47.560;9.710;2023-02-12T06:06:38;0.90;;;0.90;;
16466;SDS011;8344;47.560;9.710;2023-02-12T06:09:06;1.10;;;1.10;;
16466;SDS011;8344;47.560;9.710;2023-02-12T06:11:32;1.03;;;1.03;;
16466;SDS011;8344;47.560;9.710;2023-02-12T06:13:57;0.73;;;0.73;;
16466;SDS011;8344;47.560;9.710;2023-02-12T06:16:23;1.20;;;1.20;;
16466;SDS011;8344;47.560;9.710;2023-02-12T06:18:50;0.80;;;0.80;;
16466;SDS011;8344;47.560;9.710;2023-02-12T06:21:17;0.93;;;0.93;;
16466;SDS011;8344;47.560;9.710;2023-02-12T06:23:44;0.80;;;0.80;;
16466;SDS011;8344;47.560;9.710;2023-02-12T06:26:10;0.97;;;0.97;;
16466;SDS011;8344;47.560;9.710;2023-02-12T06:28:35;0.83;;;0.83;;
16466;SDS011;8344;47.560;9.710;2023-02-12T06:31:01;1.00;;;1.00;;
16466;SDS011;8344;47.560;9.710;2023-02-12T06:33:27;0.80;;;0.80;;
16466;SDS011;8344;47.560;9.710;2023-02-12T06:35:52;1.00;;;1.00;;
16466;SDS011;8344;47.560;9.710;2023-02-12T06:38:17;1.00;;;1.00;;
16466;SDS011;8344;47.560;9.710;2023-02-12T06:40:43;0.80;;;0.80;;
16466;SDS011;8344;47.560;9.710;2023-02-12T06:43:08;0.70;;;0.70;;
16466;SDS011;8344;47.560;9.710;2023-02-12T06:45:34;0.90;;;0.90;;
16466;SDS011;8344;47.560;9.710;2023-02-12T06:47:59;1.00;;;1.00;;
16466;SDS011;8344;47.560;9.710;2023-02-12T06:50:24;0.83;;;0.83;;
16466;SDS011;8344;47.560;9.710;2023-02-12T06:52:50;0.80;;;0.80;;
16466;SDS011;8344;47.560;9.710;2023-02-12T06:55:15;1.00;;;1.00;;
16466;SDS011;8344;47.560;9.710;2023-02-12T06:57:41;0.87;;;0.87;;
16466;SDS011;8344;47.560;9.710;2023-02-12T07:00:07;0.97;;;0.97;;
16466;SDS011;8344;47.560;9.710;2023-02-12T07:02:33;0.97;;;0.97;;
16466;SDS011;8344;47.560;9.710;2023-02-12T07:04:58;0.70;;;0.70;;
16466;SDS011;8344;47.560;9.710;2023-02-12T07:07:23;1.00;;;1.00;;
16466;SDS011;8344;47.560;9.710;2023-02-12T07:09:49;0.90;;;0.90;;
16466;SDS011;8344;47.560;9.710;2023-02-12T07:12:14;1.00;;;1.00;;
16466;SDS011;8344;47.560;9.710;2023-02-12T07:14:39;1.00;;;1.00;;
16466;SDS011;8344;47.560;9.710;2023-02-12T07:17:04;0.70;;;0.70;;
16466;SDS011;8344;47.560;9.710;2023-02-12T07:19:31;0.60;;;0.60;;
16466;SDS011;8344;47.560;9.710;2023-02-12T07:21:57;0.60;;;0.60;;
16466;SDS011;8344;47.560;9.710;2023-02-12T07:24:22;0.90;;;0.90;;
16466;SDS011;8344;47.560;9.710;2023-02-12T07:26:47;1.00;;;1.00;;
16466;SDS011;8344;47.560;9.710;2023-02-12T07:29:13;0.80;;;0.80;;
16466;SDS011;8344;47.560;9.710;2023-02-12T07:31:38;0.80;;;0.80;;
16466;SDS011;8344;47.560;9.710;2023-02-12T07:34:04;1.00;;;1.00;;
16466;SDS011;8344;47.560;9.710;2023-02-12T07:36:30;0.90;;;0.90;;
16466;SDS011;8344;47.560;9.710;2023-02-12T07:38:56;0.97;;;0.97;;
16466;SDS011;8344;47.560;9.710;2023-02-12T07:41:26;0.73;;;0.73;;
16466;SDS011;8344;47.560;9.710;2023-02-12T07:44:06;1.00;;;1.00;;
16466;SDS011;8344;47.560;9.710;2023-02-12T07:46:38;0.90;;;0.90;;
16466;SDS011;8344;47.560;9.710;2023-02-12T07:49:05;0.83;;;0.83;;
16466;SDS011;8344;47.560;9.710;2023-02-12T07:51:32;0.80;;;0.80;;
16466;SDS011;8344;47.560;9.710;2023-02-12T07:53:58;0.80;;;0.80;;
16466;SDS011;8344;47.560;9.710;2023-02-12T07:56:25;0.80;;;0.80;;
16466;SDS011;8344;47.560;9.710;2023-02-12T07:58:56;0.70;;;0.70;;
16466;SDS011;8344;47.560;9.710;2023-02-12T08:01:24;0.90;;;0.90;;
16466;SDS011;8344;47.560;9.710;2023-02-12T08:03:56;0.87;;;0.87;;
16466;SDS011;8344;47.560;9.710;2023-02-12T08:06:24;0.90;;;0.90;;
16466;SDS011;8344;47.560;9.710;2023-02-12T08:08:55;0.80;;;0.80;;
16466;SDS011;8344;47.560;9.710;2023-02-12T08:11:22;0.70;;;0.70;;
16466;SDS011;8344;47.560;9.710;2023-02-12T08:13:47;0.70;;;0.70;;
16466;SDS011;8344;47.560;9.710;2023-02-12T08:16:17;0.80;;;0.80;;
16466;SDS011;8344;47.560;9.710;2023-02-12T08:18:43;0.80;;;0.80;;
16466;SDS011;8344;47.560;9.710;2023-02-12T08:21:13;0.80;;;0.80;;
16466;SDS011;8344;47.560;9.710;2023-02-12T08:23:49;0.70;;;0.70;;
16466;SDS011;8344;47.560;9.710;2023-02-12T08:28:44;0.80;;;0.80;;
16466;SDS011;8344;47.560;9.710;2023-02-12T08:31:15;0.73;;;0.73;;
16466;SDS011;8344;47.560;9.710;2023-02-12T08:33:45;0.70;;;0.70;;
16466;SDS011;8344;47.560;9.710;2023-02-12T08:36:15;0.80;;;0.80;;
16466;SDS011;8344;47.560;9.710;2023-02-12T08:38:42;0.70;;;0.70;;
16466;SDS011;8344;47.560;9.710;2023-02-12T08:41:10;0.77;;;0.77;;
16466;SDS011;8344;47.560;9.710;2023-02-12T08:43:37;0.63;;;0.63;;
16466;SDS011;8344;47.560;9.710;2023-02-12T08:46:07;0.80;;;0.80;;
16466;SDS011;8344;47.560;9.710;2023-02-12T08:48:34;0.80;;;0.80;;
16466;SDS011;8344;47.560;9.710;2023-02-12T08:51:09;0.57;;;0.57;;
16466;SDS011;8344;47.560;9.710;2023-02-12T08:53:37;0.70;;;0.70;;
16466;SDS011;8344;47.560;9.710;2023-02-12T08:56:03;0.70;;;0.70;;
16466;SDS011;8344;47.560;9.710;2023-02-12T08:58:29;0.50;;;0.50;;
16466;SDS011;8344;47.560;9.710;2023-02-12T09:00:54;0.70;;;0.70;;
16466;SDS011;8344;47.560;9.710;2023-02-12T09:03:20;0.60;;;0.60;;
16466;SDS011;8344;47.560;9.710;2023-02-12T09:05:45;0.70;;;0.70;;
16466;SDS011;8344;47.560;9.710;2023-02-12T09:08:10;0.73;;;0.73;;
16466;SDS011;8344;47.560;9.710;2023-02-12T09:10:39;0.87;;;0.87;;
16466;SDS011;8344;47.560;9.710;2023-02-12T09:13:06;0.80;;;0.80;;
16466;SDS011;8344;47.560;9.710;2023-02-12T09:15:38;0.80;;;0.80;;
16466;SDS011;8344;47.560;9.710;2023-02-12T09:18:05;0.70;;;0.70;;
16466;SDS011;8344;47.560;9.710;2023-02-12T09:20:30;0.80;;;0.80;;
16466;SDS011;8344;47.560;9.710;2023-02-12T09:22:57;0.60;;;0.60;;
16466;SDS011;8344;47.560;9.710;2023-02-12T09:25:22;0.60;;;0.60;;
16466;SDS011;8344;47.560;9.710;2023-02-12T09:27:48;0.70;;;0.70;;
16466;SDS011;8344;47.560;9.710;2023-02-12T09:30:13;0.70;;;0.70;;
16466;SDS011;8344;47.560;9.710;2023-02-12T09:32:39;0.70;;;0.70;;
16466;SDS011;8344;47.560;9.710;2023-02-12T09:35:04;0.60;;;0.60;;
16466;SDS011;8344;47.560;9.710;2023-02-12T09:37:30;0.60;;;0.60;;
16466;SDS011;8344;47.560;9.710;2023-02-12T09:39:55;0.77;;;0.77;;
16466;SDS011;8344;47.560;9.710;2023-02-12T09:45:22;0.70;;;0.70;;
16466;SDS011;8344;47.560;9.710;2023-02-12T09:53:24;0.60;;;0.60;;
16466;SDS011;8344;47.560;9.710;2023-02-12T09:55:51;0.77;;;0.77;;
16466;SDS011;8344;47.560;9.710;2023-02-12T09:58:31;0.60;;;0.60;;
16466;SDS011;8344;47.560;9.710;2023-02-12T10:01:09;0.70;;;0.70;;
16466;SDS011;8344;47.560;9.710;2023-02-12T10:03:37;0.60;;;0.60;;
16466;SDS011;8344;47.560;9.710;2023-02-12T10:06:04;0.60;;;0.60;;
16466;SDS011;8344;47.560;9.710;2023-02-12T10:16:35;0.67;;;0.67;;
16466;SDS011;8344;47.560;9.710;2023-02-12T10:27:31;0.70;;;0.70;;
16466;SDS011;8344;47.560;9.710;2023-02-12T10:30:00;0.70;;;0.70;;
16466;SDS011;8344;47.560;9.710;2023-02-12T10:32:29;0.70;;;0.70;;
16466;SDS011;8344;47.560;9.710;2023-02-12T10:34:58;0.60;;;0.60;;
16466;SDS011;8344;47.560;9.710;2023-02-12T10:40:14;0.70;;;0.70;;
16466;SDS011;8344;47.560;9.710;2023-02-12T10:42:43;0.60;;;0.60;;
16466;SDS011;8344;47.560;9.710;2023-02-12T10:45:29;0.70;;;0.70;;
16466;SDS011;8344;47.560;9.710;2023-02-12T10:48:29;0.53;;;0.53;;
16466;SDS011;8344;47.560;9.710;2023-02-12T10:50:50;0.63;;;0.63;;
16466;SDS011;8344;47.560;9.710;2023-02-12T10:53:23;0.57;;;0.57;;
16466;SDS011;8344;47.560;9.710;2023-02-12T10:56:10;0.57;;;0.57;;
16466;SDS011;8344;47.560;9.710;2023-02-12T10:58:54;0.63;;;0.63;;
16466;SDS011;8344;47.560;9.710;2023-02-12T11:01:32;0.67;;;0.67;;
16466;SDS011;8344;47.560;9.710;2023-02-12T11:04:00;0.60;;;0.60;;
16466;SDS011;8344;47.560;9.710;2023-02-12T11:07:17;0.50;;;0.50;;
16466;SDS011;8344;47.560;9.710;2023-02-12T11:09:37;0.53;;;0.53;;
16466;SDS011;8344;47.560;9.710;2023-02-12T11:12:25;0.70;;;0.70;;
16466;SDS011;8344;47.560;9.710;2023-02-12T11:14:55;0.60;;;0.60;;
16466;SDS011;8344;47.560;9.710;2023-02-12T11:17:23;0.50;;;0.50;;
16466;SDS011;8344;47.560;9.710;2023-02-12T11:22:28;0.50;;;0.50;;
16466;SDS011;8344;47.560;9.710;2023-02-12T11:24:58;0.70;;;0.70;;
16466;SDS011;8344;47.560;9.710;2023-02-12T11:27:26;0.50;;;0.50;;
16466;SDS011;8344;47.560;9.710;2023-02-12T11:32:42;0.50;;;0.50;;
16466;SDS011;8344;47.560;9.710;2023-02-12T11:37:47;0.50;;;0.50;;
16466;SDS011;8344;47.560;9.710;2023-02-12T11:40:20;0.60;;;0.60;;
16466;SDS011;8344;47.560;9.710;2023-02-12T11:42:49;0.50;;;0.50;;
16466;SDS011;8344;47.560;9.710;2023-02-12T11:45:17;0.43;;;0.43;;
16466;SDS011;8344;47.560;9.710;2023-02-12T11:47:44;0.60;;;0.60;;
16466;SDS011;8344;47.560;9.710;2023-02-12T11:50:29;0.50;;;0.50;;
16466;SDS011;8344;47.560;9.710;2023-02-12T11:53:19;0.60;;;0.60;;
16466;SDS011;8344;47.560;9.710;2023-02-12T11:55:52;0.50;;;0.50;;
16466;SDS011;8344;47.560;9.710;2023-02-12T11:58:23;0.80;;;0.80;;
16466;SDS011;8344;47.560;9.710;2023-02-12T12:00:54;0.60;;;0.60;;
16466;SDS011;8344;47.560;9.710;2023-02-12T12:12:07;0.50;;;0.50;;
16466;SDS011;8344;47.560;9.710;2023-02-12T12:14:50;0.50;;;0.50;;
16466;SDS011;8344;47.560;9.710;2023-02-12T12:17:39;0.43;;;0.43;;
16466;SDS011;8344;47.560;9.710;2023-02-12T12:20:44;0.43;;;0.43;;
16466;SDS011;8344;47.560;9.710;2023-02-12T12:23:29;0.57;;;0.57;;
16466;SDS011;8344;47.560;9.710;2023-02-12T12:26:00;0.60;;;0.60;;
16466;SDS011;8344;47.560;9.710;2023-02-12T12:34:07;0.52;;;0.52;;
16466;SDS011;8344;47.560;9.710;2023-02-12T12:39:21;0.30;;;0.30;;
16466;SDS011;8344;47.560;9.710;2023-02-12T12:42:01;0.40;;;0.40;;
16466;SDS011;8344;47.560;9.710;2023-02-12T12:44:50;0.40;;;0.40;;
16466;SDS011;8344;47.560;9.710;2023-02-12T12:47:39;0.50;;;0.50;;
16466;SDS011;8344;47.560;9.710;2023-02-12T12:50:28;0.40;;;0.40;;
16466;SDS011;8344;47.560;9.710;2023-02-12T12:53:21;0.30;;;0.30;;
16466;SDS011;8344;47.560;9.710;2023-02-12T12:58:32;0.50;;;0.50;;
16466;SDS011;8344;47.560;9.710;2023-02-12T13:01:19;0.40;;;0.40;;
16466;SDS011;8344;47.560;9.710;2023-02-12T13:04:35;0.45;;;0.45;;
16466;SDS011;8344;47.560;9.710;2023-02-12T13:12:50;0.40;;;0.40;;
16466;SDS011;8344;47.560;9.710;2023-02-12T13:15:20;0.50;;;0.50;;
16466;SDS011;8344;47.560;9.710;2023-02-12T13:20:36;0.40;;;0.40;;
16466;SDS011;8344;47.560;9.710;2023-02-12T13:23:20;0.40;;;0.40;;
16466;SDS011;8344;47.560;9.710;2023-02-12T13:26:00;0.50;;;0.50;;
16466;SDS011;8344;47.560;9.710;2023-02-12T13:28:33;0.40;;;0.40;;
16466;SDS011;8344;47.560;9.710;2023-02-12T13:31:00;0.50;;;0.50;;
16466;SDS011;8344;47.560;9.710;2023-02-12T13:33:37;0.50;;;0.50;;
16466;SDS011;8344;47.560;9.710;2023-02-12T13:36:05;0.40;;;0.40;;
16466;SDS011;8344;47.560;9.710;2023-02-12T13:38:46;0.40;;;0.40;;
16466;SDS011;8344;47.560;9.710;2023-02-12T13:41:15;0.55;;;0.55;;
16466;SDS011;8344;47.560;9.710;2023-02-12T13:43:45;0.50;;;0.50;;
16466;SDS011;8344;47.560;9.710;2023-02-12T13:51:40;0.50;;;0.50;;
16466;SDS011;8344;47.560;9.710;2023-02-12T14:02:03;0.43;;;0.43;;
16466;SDS011;8344;47.560;9.710;2023-02-12T14:04:30;0.50;;;0.50;;
16466;SDS011;8344;47.560;9.710;2023-02-12T14:07:03;0.40;;;0.40;;
16466;SDS011;8344;47.560;9.710;2023-02-12T14:09:40;0.32;;;0.32;;
16466;SDS011;8344;47.560;9.710;2023-02-12T14:12:12;0.40;;;0.40;;
16466;SDS011;8344;47.560;9.710;2023-02-12T14:14:41;0.30;;;0.30;;
16466;SDS011;8344;47.560;9.710;2023-02-12T14:19:53;0.32;;;0.32;;
16466;SDS011;8344;47.560;9.710;2023-02-12T14:24:53;0.60;;;0.60;;
16466;SDS011;8344;47.560;9.710;2023-02-12T14:27:36;0.40;;;0.40;;
16466;SDS011;8344;47.560;9.710;2023-02-12T14:35:29;0.50;;;0.50;;
16466;SDS011;8344;47.560;9.710;2023-02-12T14:37:58;0.50;;;0.50;;
16466;SDS011;8344;47.560;9.710;2023-02-12T14:45:57;0.50;;;0.50;;
16466;SDS011;8344;47.560;9.710;2023-02-12T14:48:52;0.40;;;0.40;;
16466;SDS011;8344;47.560;9.710;2023-02-12T14:51:20;0.40;;;0.40;;
16466;SDS011;8344;47.560;9.710;2023-02-12T14:54:03;0.50;;;0.50;;
16466;SDS011;8344;47.560;9.710;2023-02-12T14:56:29;0.50;;;0.50;;
16466;SDS011;8344;47.560;9.710;2023-02-12T14:58:57;0.50;;;0.50;;
16466;SDS011;8344;47.560;9.710;2023-02-12T15:01:25;0.40;;;0.40;;
16466;SDS011;8344;47.560;9.710;2023-02-12T15:03:56;0.38;;;0.38;;
16466;SDS011;8344;47.560;9.710;2023-02-12T15:06:22;0.35;;;0.35;;
16466;SDS011;8344;47.560;9.710;2023-02-12T15:08:57;0.40;;;0.40;;
16466;SDS011;8344;47.560;9.710;2023-02-12T15:14:39;0.40;;;0.40;;
16466;SDS011;8344;47.560;9.710;2023-02-12T15:16:49;0.40;;;0.40;;
16466;SDS011;8344;47.560;9.710;2023-02-12T15:22:23;0.43;;;0.43;;
16466;SDS011;8344;47.560;9.710;2023-02-12T15:24:51;0.50;;;0.50;;
16466;SDS011;8344;47.560;9.710;2023-02-12T15:27:17;0.60;;;0.60;;
16466;SDS011;8344;47.560;9.710;2023-02-12T15:29:44;0.50;;;0.50;;
16466;SDS011;8344;47.560;9.710;2023-02-12T15:32:29;0.45;;;0.45;;
16466;SDS011;8344;47.560;9.710;2023-02-12T15:34:55;0.50;;;0.50;;
16466;SDS011;8344;47.560;9.710;2023-02-12T15:37:24;0.60;;;0.60;;
16466;SDS011;8344;47.560;9.710;2023-02-12T15:39:52;0.40;;;0.40;;
16466;SDS011;8344;47.560;9.710;2023-02-12T15:47:39;0.60;;;0.60;;
16466;SDS011;8344;47.560;9.710;2023-02-12T15:50:06;0.40;;;0.40;;
16466;SDS011;8344;47.560;9.710;2023-02-12T15:52:36;0.50;;;0.50;;
16466;SDS011;8344;47.560;9.710;2023-02-12T15:55:04;0.38;;;0.38;;
16466;SDS011;8344;47.560;9.710;2023-02-12T15:57:30;0.50;;;0.50;;
16466;SDS011;8344;47.560;9.710;2023-02-12T15:59:58;0.40;;;0.40;;
16466;SDS011;8344;47.560;9.710;2023-02-12T16:02:30;0.30;;;0.30;;
16466;SDS011;8344;47.560;9.710;2023-02-12T16:04:57;0.65;;;0.65;;
16466;SDS011;8344;47.560;9.710;2023-02-12T16:07:23;0.50;;;0.50;;
16466;SDS011;8344;47.560;9.710;2023-02-12T16:09:50;0.50;;;0.50;;
16466;SDS011;8344;47.560;9.710;2023-02-12T16:12:18;0.65;;;0.65;;
16466;SDS011;8344;47.560;9.710;2023-02-12T16:14:46;0.50;;;0.50;;
16466;SDS011;8344;47.560;9.710;2023-02-12T16:19:53;0.40;;;0.40;;
16466;SDS011;8344;47.560;9.710;2023-02-12T16:22:19;0.52;;;0.52;;
16466;SDS011;8344;47.560;9.710;2023-02-12T16:24:52;0.55;;;0.55;;
16466;SDS011;8344;47.560;9.710;2023-02-12T16:27:19;0.40;;;0.40;;
16466;SDS011;8344;47.560;9.710;2023-02-12T16:29:48;0.57;;;0.57;;
16466;SDS011;8344;47.560;9.710;2023-02-12T16:34:59;0.50;;;0.50;;
16466;SDS011;8344;47.560;9.710;2023-02-12T16:47:48;0.50;;;0.50;;
16466;SDS011;8344;47.560;9.710;2023-02-12T16:50:14;0.60;;;0.60;;
16466;SDS011;8344;47.560;9.710;2023-02-12T16:52:40;0.67;;;0.67;;
16466;SDS011;8344;47.560;9.710;2023-02-12T16:55:16;0.60;;;0.60;;
16466;SDS011;8344;47.560;9.710;2023-02-12T16:57:42;0.50;;;0.50;;
16466;SDS011;8344;47.560;9.710;2023-02-12T17:00:08;0.70;;;0.70;;
16466;SDS011;8344;47.560;9.710;2023-02-12T17:02:36;0.67;;;0.67;;
16466;SDS011;8344;47.560;9.710;2023-02-12T17:05:02;0.50;;;0.50;;
16466;SDS011;8344;47.560;9.710;2023-02-12T17:07:31;0.60;;;0.60;;
16466;SDS011;8344;47.560;9.710;2023-02-12T17:09:57;0.60;;;0.60;;
16466;SDS011;8344;47.560;9.710;2023-02-12T17:12:22;0.60;;;0.60;;
16466;SDS011;8344;47.560;9.710;2023-02-12T17:14:47;0.70;;;0.70;;
16466;SDS011;8344;47.560;9.710;2023-02-12T17:17:13;0.60;;;0.60;;
16466;SDS011;8344;47.560;9.710;2023-02-12T17:19:38;0.60;;;0.60;;
16466;SDS011;8344;47.560;9.710;2023-02-12T17:22:03;0.70;;;0.70;;
16466;SDS011;8344;47.560;9.710;2023-02-12T17:24:30;0.77;;;0.77;;
16466;SDS011;8344;47.560;9.710;2023-02-12T17:26:58;0.70;;;0.70;;
16466;SDS011;8344;47.560;9.710;2023-02-12T17:29:23;0.63;;;0.63;;
16466;SDS011;8344;47.560;9.710;2023-02-12T17:31:49;0.70;;;0.70;;
16466;SDS011;8344;47.560;9.710;2023-02-12T17:34:17;0.70;;;0.70;;
16466;SDS011;8344;47.560;9.710;2023-02-12T17:36:43;0.67;;;0.67;;
16466;SDS011;8344;47.560;9.710;2023-02-12T17:39:09;0.60;;;0.60;;
16466;SDS011;8344;47.560;9.710;2023-02-12T17:41:36;0.60;;;0.60;;
16466;SDS011;8344;47.560;9.710;2023-02-12T17:44:01;0.80;;;0.80;;
16466;SDS011;8344;47.560;9.710;2023-02-12T17:46:27;0.80;;;0.80;;
16466;SDS011;8344;47.560;9.710;2023-02-12T17:48:53;0.63;;;0.63;;
16466;SDS011;8344;47.560;9.710;2023-02-12T17:51:19;0.60;;;0.60;;
16466;SDS011;8344;47.560;9.710;2023-02-12T17:53:44;0.60;;;0.60;;